Pagrindinis puslapis
METAR-TAF:

METAR-TAF

Oro uostai :

Heliport

Værøy, Norvegija

platuma: 67-39-16N, ilguma: 12-43-37E, Aukštis: 5 m

Dabartinis oras

Ataskaita buvo paskelbta 16 valandos ir 56 minutes, ne 13:50 UTC
Vėjas 14 kt iš Šiaurės Rytų
Temperatūra -1°C
Drėgmė 64%
Slėgis 992 hPa
Matomumas 10 km arba daugiau
Išsisklaidę debesys ne aukštis 2500 ft

METAR: ENVR 011350Z 04014KT 9999 SCT025 M01/M07 Q0992

Laikas: 07:46 (06:46 UTC)


TAF: trūkstamas

Orai ataskaitas ir orų prognozės (METAR, TAF).

turimą stotys yra geltonos ir raudonos taškus žemėlapyje.

Perkelti pele per norėdami pamatyti stoties vardą.

Tada spustelėkite, norėdami matyti oro stebėjimo ir prognozės.

Norėdami pakeisti žemėlapį: spustelėkite ant žalios mygtukų su juodo kryžiaus žemyn,; žalią mygtuką su brūkšneliu, jei norite nutolinti; arba žalių rodyklių gretimoms žemėlapius.


METAR-TAF: